.
WxDataArchive / Data Records for 2006-08-16
2006-08-15 August 2006 2006-08-17

Data Records for Wednesday, 16 August 2006

Time	Temp	Chill	HIndex	Humid	Dewpt	 Wind 	HiWind	WindDir	Rain 	Barom 
-----	----	-----	------	-----	-----	------	------	-------	-----	----- 
00:00	57.8	57.8	57.8	77	50.6	0	0	---	0.00	30.071 
00:05	57.5	57.5	57.5	77	50.3	0	0	---	0.00	30.071 
00:10	57.0	57.0	57.0	78	50.2	0	0	---	0.00	30.071 
00:15	56.7	56.7	56.7	80	50.6	0	0	---	0.00	30.073 
00:20	56.5	56.5	56.5	80	50.4	0	0	---	0.00	30.073 
00:25	56.2	56.2	56.2	81	50.4	0	0	---	0.00	30.073 
00:30	56.0	56.0	56.0	81	50.3	0	0	---	0.00	30.074 
00:35	55.7	55.7	55.7	81	50.0	0	0	---	0.00	30.074 
00:40	55.6	55.6	55.6	82	50.2	0	0	---	0.00	30.074 
00:45	55.3	55.3	55.3	83	50.2	0	0	---	0.00	30.077 
00:50	55.0	55.0	55.0	84	50.3	0	0	---	0.00	30.077 
00:55	54.8	54.8	54.8	84	50.1	0	0	---	0.00	30.077 
01:00	54.5	54.5	54.5	85	50.1	0	0	---	0.00	30.081 
01:05	54.4	54.4	54.4	85	50.0	0	0	---	0.00	30.081 
01:10	54.2	54.2	54.2	85	49.8	0	0	---	0.00	30.081 
01:15	54.4	54.4	54.4	86	50.3	0	0	---	0.00	30.085 
01:20	54.2	54.2	54.2	85	49.8	0	0	---	0.00	30.085 
01:25	54.1	54.1	54.1	86	50.0	0	0	---	0.00	30.085 
01:30	53.9	53.9	53.9	87	50.1	0	0	---	0.00	30.083 
01:35	53.6	53.6	53.6	86	49.5	0	0	---	0.00	30.083 
01:40	53.5	53.5	53.5	87	49.7	0	0	---	0.00	30.083 
01:45	53.3	53.3	53.3	87	49.5	0	0	---	0.00	30.086 
01:50	53.2	53.2	53.2	88	49.7	0	0	---	0.00	30.086 
01:55	53.1	53.1	53.1	89	49.9	0	0	---	0.00	30.086 
02:00	52.9	52.9	52.9	89	49.7	0	0	---	0.00	30.080 
02:05	52.8	52.8	52.8	89	49.6	0	0	---	0.00	30.080 
02:10	52.8	52.8	52.8	89	49.6	0	0	---	0.00	30.080 
02:15	52.6	52.6	52.6	89	49.4	0	0	---	0.00	30.076 
02:20	52.5	52.5	52.5	89	49.4	0	0	---	0.00	30.076 
02:25	52.5	52.5	52.5	90	49.7	0	0	---	0.00	30.076 
02:30	52.3	52.3	52.3	90	49.5	0	0	---	0.00	30.076 
02:35	52.3	52.3	52.3	90	49.5	0	0	---	0.00	30.076 
02:40	52.2	52.2	52.2	90	49.4	0	0	---	0.00	30.076 
02:45	52.2	52.2	52.2	90	49.4	0	0	---	0.00	30.076 
02:50	52.0	52.0	52.0	90	49.2	0	0	---	0.00	30.076 
02:55	52.0	52.0	52.0	91	49.5	0	0	---	0.00	30.076 
03:00	52.0	52.0	52.0	91	49.5	0	0	---	0.00	30.066 
03:05	52.0	52.0	52.0	91	49.5	0	0	---	0.00	30.066 
03:10	52.0	52.0	52.0	91	49.5	0	0	---	0.00	30.066 
03:15	52.0	52.0	52.0	91	49.5	0	0	---	0.00	30.070 
03:20	52.0	52.0	52.0	91	49.5	0	0	---	0.00	30.070 
03:25	52.0	52.0	52.0	91	49.5	0	0	---	0.00	30.070 
03:30	52.0	52.0	52.0	91	49.5	0	0	---	0.00	30.076 
03:35	51.9	51.9	51.9	91	49.4	0	0	---	0.00	30.076 
03:40	52.0	52.0	52.0	91	49.5	0	0	---	0.00	30.076 
03:45	52.0	52.0	52.0	91	49.5	0	0	---	0.00	30.079 
03:50	51.9	51.9	51.9	91	49.4	0	0	---	0.00	30.079 
03:55	51.9	51.9	51.9	91	49.4	0	0	---	0.00	30.079 
04:00	51.9	51.9	51.9	91	49.4	0	0	---	0.00	30.080 
04:05	51.9	51.9	51.9	91	49.4	0	0	---	0.00	30.080 
04:10	51.9	51.9	51.9	91	49.4	0	0	---	0.00	30.080 
04:15	51.9	51.9	51.9	91	49.4	0	0	---	0.00	30.091 
04:20	51.9	51.9	51.9	91	49.4	0	0	---	0.00	30.091 
04:25	51.9	51.9	51.9	91	49.4	0	0	---	0.00	30.091 
04:30	51.9	51.9	51.9	91	49.4	0	0	---	0.00	30.094 
04:35	51.9	51.9	51.9	91	49.4	0	0	---	0.00	30.094 
04:40	51.9	51.9	51.9	91	49.4	0	0	---	0.00	30.094 
04:45	51.9	51.9	51.9	91	49.4	0	0	---	0.00	30.094 
04:50	51.9	51.9	51.9	91	49.4	0	0	---	0.00	30.094 
04:55	51.9	51.9	51.9	91	49.4	0	0	---	0.00	30.094 
05:00	51.9	51.9	51.9	92	49.6	0	0	---	0.00	30.094 
05:05	51.9	51.9	51.9	92	49.6	0	0	---	0.00	30.094 
05:10	51.7	51.7	51.7	91	49.2	0	0	---	0.00	30.094 
05:15	51.7	51.7	51.7	91	49.2	0	0	---	0.00	30.103 
05:20	51.6	51.6	51.6	92	49.4	0	0	---	0.00	30.103 
05:25	51.7	51.7	51.7	92	49.5	0	0	---	0.00	30.103 
05:30	51.6	51.6	51.6	92	49.4	0	0	---	0.00	30.107 
05:35	51.6	51.6	51.6	92	49.4	0	0	---	0.00	30.107 
05:40	51.4	51.4	51.4	92	49.2	0	0	---	0.00	30.107 
05:45	51.4	51.4	51.4	92	49.2	0	0	---	0.00	30.113 
05:50	51.4	51.4	51.4	92	49.2	0	0	---	0.00	30.113 
05:55	51.3	51.3	51.3	92	49.1	0	0	---	0.00	30.113 
06:00	51.1	51.1	51.1	92	48.9	0	0	---	0.00	30.110 
06:05	51.1	51.1	51.1	92	48.9	0	0	---	0.00	30.110 
06:10	51.0	51.0	51.0	92	48.8	0	0	---	0.00	30.110 
06:15	50.8	50.8	50.8	92	48.6	0	0	---	0.00	30.113 
06:20	50.8	50.8	50.8	92	48.6	0	0	---	0.00	30.113 
06:25	50.7	50.7	50.7	92	48.5	0	0	---	0.00	30.113 
06:30	50.5	50.5	50.5	92	48.3	0	0	---	0.00	30.114 
06:35	50.5	50.5	50.5	92	48.3	0	0	---	0.00	30.114 
06:40	50.5	50.5	50.5	92	48.3	0	0	---	0.00	30.114 
06:45	50.4	50.4	50.4	92	48.2	0	0	---	0.00	30.116 
06:50	50.4	50.4	50.4	93	48.5	0	0	---	0.00	30.116 
06:55	50.4	50.4	50.4	93	48.5	0	0	---	0.00	30.116 
07:00	50.4	50.4	50.4	93	48.5	0	0	---	0.00	30.125 
07:05	50.4	50.4	50.4	93	48.5	0	0	---	0.00	30.125 
07:10	50.4	50.4	50.4	93	48.5	0	0	---	0.00	30.125 
07:15	50.4	50.4	50.4	93	48.5	0	0	---	0.00	30.131 
07:20	50.4	50.4	50.4	94	48.7	0	0	---	0.00	30.131 
07:25	50.5	50.5	50.5	94	48.8	0	0	---	0.00	30.131 
07:30	50.7	50.7	50.7	94	49.0	0	0	---	0.00	30.132 
07:35	51.3	51.3	51.3	94	49.6	0	0	---	0.00	30.132 
07:40	51.9	51.9	51.9	95	50.5	0	0	---	0.00	30.132 
07:45	52.5	52.5	52.5	95	51.1	0	0	---	0.00	30.138 
07:50	53.3	53.3	53.3	94	51.6	0	0	---	0.00	30.138 
07:55	54.1	54.1	54.1	92	51.8	0	0	---	0.00	30.138 
08:00	55.0	55.0	55.0	89	51.8	0	0	---	0.00	30.136 
08:05	55.7	55.7	55.7	86	51.6	0	0	---	0.00	30.136 
08:10	56.7	56.7	56.7	84	51.9	0	0	---	0.00	30.136 
08:15	57.8	57.8	57.8	82	52.3	0	0	---	0.00	30.141 
08:20	58.9	58.9	58.9	78	52.0	0	0	---	0.00	30.141 
08:25	59.9	59.9	59.9	78	53.0	0	0	---	0.00	30.141 
08:30	61.3	61.3	61.3	73	52.6	0	1	315	0.00	30.142 
08:35	62.4	62.4	62.4	72	53.2	0	0	---	0.00	30.142 
08:40	63.2	63.2	63.2	71	53.6	0	0	---	0.00	30.142 
08:45	64.0	64.0	64.0	69	53.6	0	0	---	0.00	30.149 
08:50	64.8	64.8	64.8	65	52.8	0	1	315	0.00	30.149 
08:55	65.5	65.5	65.5	66	53.8	0	2	315	0.00	30.149 
09:00	66.1	66.1	66.1	65	54.0	0	2	315	0.00	30.150 
09:05	66.8	66.8	66.8	65	54.6	0	1	315	0.00	30.150 
09:10	67.4	67.4	67.4	63	54.4	1	2	315	0.00	30.150 
09:15	67.8	67.8	67.8	61	53.9	0	2	0	0.00	30.153 
09:20	68.3	68.3	68.3	61	54.3	0	1	0	0.00	30.153 
09:25	68.8	68.8	68.8	58	53.4	1	2	0	0.00	30.153 
09:30	69.1	69.1	69.1	62	55.5	0	1	22	0.00	30.155 
09:35	69.3	69.3	69.3	58	53.9	0	1	22	0.00	30.155 
09:40	69.6	69.6	69.6	60	55.1	0	2	22	0.00	30.155 
09:45	69.8	69.8	69.8	59	54.8	0	1	22	0.00	30.157 
09:50	70.3	70.3	70.3	55	53.4	0	2	22	0.00	30.157 
09:55	70.8	70.8	70.8	58	55.3	0	1	22	0.00	30.157 
10:00	71.1	71.1	71.1	55	54.1	0	1	22	0.00	30.158 
10:05	71.1	71.1	71.1	57	55.1	0	1	22	0.00	30.158 
10:10	70.9	70.9	70.9	57	54.9	1	2	22	0.00	30.158 
10:15	71.6	71.6	71.6	54	54.1	0	2	22	0.00	30.158 
10:20	72.3	72.3	72.3	54	54.7	1	3	68	0.00	30.158 
10:25	72.8	72.8	72.8	53	54.7	1	3	68	0.00	30.158 
10:30	73.3	73.3	73.3	51	54.1	1	2	68	0.00	30.164 
10:35	73.7	73.7	73.7	51	54.4	1	3	68	0.00	30.164 
10:40	73.9	73.9	73.9	53	55.7	0	2	68	0.00	30.164 
10:45	74.4	74.4	74.4	50	54.5	1	3	68	0.00	30.168 
10:50	74.7	74.7	74.7	50	54.8	1	3	68	0.00	30.168 
10:55	75.1	75.1	77.7	51	55.7	1	3	45	0.00	30.168 
11:00	75.3	75.3	77.7	51	55.9	0	2	45	0.00	30.167 
11:05	76.0	76.0	78.0	47	54.3	1	4	45	0.00	30.167 
11:10	76.7	76.7	78.4	50	56.6	1	4	68	0.00	30.167 
11:15	76.8	76.8	78.4	47	55.0	1	3	112	0.00	30.172 
11:20	76.5	76.5	78.2	46	54.2	1	3	112	0.00	30.172 
11:25	76.3	76.3	78.0	43	52.1	0	2	112	0.00	30.172 
11:30	77.0	77.0	78.3	41	51.5	1	4	112	0.00	30.170 
11:35	77.4	77.4	78.6	43	53.1	1	4	112	0.00	30.170 
11:40	78.1	78.1	78.8	41	52.5	1	3	90	0.00	30.170 
11:45	78.1	78.1	78.7	39	51.1	2	5	90	0.00	30.169 
11:50	78.1	78.1	78.9	43	53.8	0	2	90	0.00	30.169 
11:55	78.6	78.6	79.0	39	51.5	2	4	90	0.00	30.169 
12:00	79.0	79.0	79.3	40	52.6	1	3	112	0.00	30.167 
12:05	79.2	79.2	79.3	39	52.1	1	2	90	0.00	30.167 
12:10	78.6	78.6	79.1	41	52.9	2	5	90	0.00	30.167 
12:15	78.5	78.5	79.0	40	52.1	1	4	90	0.00	30.164 
12:20	78.8	78.8	79.1	39	51.7	1	2	22	0.00	30.164 
12:25	79.6	79.6	79.7	40	53.1	2	5	90	0.00	30.164 
12:30	79.8	79.8	79.8	40	53.3	1	4	68	0.00	30.157 
12:35	80.1	80.1	79.9	39	52.9	1	5	90	0.00	30.157 
12:40	80.1	80.1	79.8	37	51.5	1	4	90	0.00	30.157 
12:45	79.9	79.9	79.8	39	52.7	1	4	90	0.00	30.156 
12:50	80.1	80.1	79.8	38	52.2	1	3	90	0.00	30.156 
12:55	80.3	80.3	80.1	39	53.1	2	5	90	0.00	30.156 
13:00	80.1	80.1	80.0	40	53.6	1	4	112	0.00	30.156 
13:05	80.3	80.3	79.9	37	51.6	2	4	90	0.00	30.156 
13:10	80.3	80.3	80.0	38	52.4	1	4	292	0.00	30.156 
13:15	80.7	80.7	80.5	41	54.8	2	5	90	0.00	30.152 
13:20	80.1	80.1	79.9	39	52.9	3	7	90	0.00	30.152 
13:25	80.3	80.3	80.1	39	53.1	1	4	90	0.00	30.152 
13:30	80.3	80.3	79.9	37	51.6	1	3	90	0.00	30.149 
13:35	80.7	80.7	80.4	40	54.1	2	7	315	0.00	30.149 
13:40	80.7	80.7	80.3	39	53.4	3	6	112	0.00	30.149 
13:45	80.7	80.7	80.3	39	53.4	2	9	90	0.00	30.144 
13:50	81.1	81.1	80.6	39	53.8	1	2	22	0.00	30.144 
13:55	80.9	80.9	80.6	40	54.3	3	7	90	0.00	30.144 
14:00	80.7	80.7	80.3	39	53.4	2	6	90	0.00	30.147 
14:05	81.1	81.1	80.9	42	55.8	2	6	68	0.00	30.147 
14:10	81.4	81.4	80.4	34	50.3	2	7	90	0.00	30.147 
14:15	81.8	81.8	80.6	33	49.9	2	5	90	0.00	30.145 
14:20	82.2	82.2	81.3	37	53.3	2	5	90	0.00	30.145 
14:25	81.8	81.8	81.0	37	53.0	3	5	90	0.00	30.145 
14:30	81.8	81.8	81.0	37	53.0	2	4	112	0.00	30.142 
14:35	82.0	82.0	81.1	37	53.1	2	5	90	0.00	30.142 
14:40	82.2	82.2	81.2	36	52.6	2	4	90	0.00	30.142 
14:45	82.0	82.0	80.9	35	51.6	3	11	90	0.00	30.141 
14:50	81.8	81.8	80.9	36	52.2	3	9	90	0.00	30.141 
14:55	82.0	82.0	81.1	37	53.1	2	6	112	0.00	30.141 
15:00	82.2	82.2	81.1	35	51.8	1	5	135	0.00	30.142 
15:05	82.2	82.2	81.3	37	53.3	1	5	90	0.00	30.142 
15:10	82.6	82.6	81.4	35	52.1	2	5	90	0.00	30.142 
15:15	83.0	83.0	81.7	35	52.5	2	5	112	0.00	30.141 
15:20	82.8	82.8	81.7	36	53.1	3	7	112	0.00	30.141 
15:25	82.4	82.4	81.2	35	52.0	2	6	90	0.00	30.141 
15:30	82.4	82.4	81.6	38	54.2	2	5	90	0.00	30.139 
15:35	83.0	83.0	82.2	39	55.5	0	2	22	0.00	30.139 
15:40	83.4	83.4	82.4	38	55.1	1	3	270	0.00	30.139 
15:45	84.1	84.1	83.2	39	56.4	1	3	270	0.00	30.131 
15:50	84.1	84.1	83.1	38	55.7	2	4	68	0.00	30.131 
15:55	84.3	84.3	83.1	37	55.2	2	4	112	0.00	30.131 
16:00	84.0	84.0	82.8	37	54.9	1	5	112	0.00	30.131 
16:05	84.0	84.0	82.8	37	54.9	1	2	90	0.00	30.131 
16:10	83.8	83.8	82.9	39	56.2	2	5	90	0.00	30.131 
16:15	83.4	83.4	82.6	39	55.8	1	3	270	0.00	30.126 
16:20	83.2	83.2	82.4	39	55.6	1	5	90	0.00	30.126 
16:25	83.2	83.2	82.5	40	56.3	1	5	68	0.00	30.126 
16:30	83.0	83.0	82.2	39	55.5	2	7	90	0.00	30.124 
16:35	83.6	83.6	82.9	40	56.7	1	3	90	0.00	30.124 
16:40	83.8	83.8	82.9	39	56.2	1	4	68	0.00	30.124 
16:45	83.8	83.8	82.8	38	55.5	3	6	90	0.00	30.122 
16:50	83.8	83.8	82.8	38	55.5	1	3	90	0.00	30.122 
16:55	84.1	84.1	83.1	38	55.7	1	4	90	0.00	30.122 
17:00	83.8	83.8	83.1	40	56.9	2	5	90	0.00	30.120 
17:05	83.8	83.8	83.1	40	56.9	1	5	90	0.00	30.120 
17:10	83.6	83.6	82.8	39	56.0	3	7	90	0.00	30.120 
17:15	83.2	83.2	82.7	41	57.0	1	4	90	0.00	30.112 
17:20	83.8	83.8	82.9	39	56.2	1	3	112	0.00	30.112 
17:25	84.1	84.1	83.1	38	55.7	1	3	90	0.00	30.112 
17:30	84.0	84.0	83.1	39	56.3	2	5	90	0.00	30.111 
17:35	83.6	83.6	82.6	38	55.3	2	3	90	0.00	30.111 
17:40	83.2	83.2	82.4	39	55.6	2	4	90	0.00	30.111 
17:45	83.0	83.0	82.2	39	55.5	2	4	90	0.00	30.111 
17:50	83.0	83.0	82.3	40	56.2	1	3	90	0.00	30.111 
17:55	82.8	82.8	82.0	39	55.3	1	3	90	0.00	30.111 
18:00	82.6	82.6	82.0	40	55.8	1	4	112	0.00	30.110 
18:05	82.0	82.0	81.5	40	55.3	3	6	90	0.00	30.110 
18:10	81.6	81.6	81.3	42	56.3	1	4	90	0.00	30.110 
18:15	81.8	81.8	81.6	43	57.1	1	3	90	0.00	30.109 
18:20	82.0	82.0	81.6	41	55.9	1	3	112	0.00	30.109 
18:25	82.2	82.2	81.9	42	56.8	2	3	112	0.00	30.109 
18:30	82.0	82.0	81.9	44	57.9	1	4	90	0.00	30.110 
18:35	82.0	82.0	81.6	41	55.9	1	3	90	0.00	30.110 
18:40	81.8	81.8	81.5	42	56.4	1	3	112	0.00	30.110 
18:45	81.6	81.6	81.3	42	56.3	2	5	112	0.00	30.111 
18:50	81.4	81.4	81.2	42	56.1	1	3	90	0.00	30.111 
18:55	81.4	81.4	81.1	41	55.4	1	2	112	0.00	30.111 
19:00	81.2	81.2	81.0	42	55.9	1	3	112	0.00	30.112 
19:05	81.1	81.1	80.7	40	54.5	1	2	112	0.00	30.112 
19:10	81.1	81.1	80.8	41	55.1	1	3	112	0.00	30.112 
19:15	80.7	80.7	80.4	40	54.1	1	4	112	0.00	30.106 
19:20	80.5	80.5	80.2	39	53.2	1	3	112	0.00	30.106 
19:25	80.3	80.3	80.1	40	53.8	0	2	90	0.00	30.106 
19:30	80.3	80.3	80.1	40	53.8	0	1	90	0.00	30.107 
19:35	80.1	80.1	79.9	39	52.9	0	2	90	0.00	30.107 
19:40	79.9	79.9	79.9	41	54.1	0	2	90	0.00	30.107 
19:45	79.9	79.9	79.9	41	54.1	0	1	90	0.00	30.106 
19:50	79.6	79.6	79.8	42	54.5	0	1	90	0.00	30.106 
19:55	79.4	79.4	79.8	43	54.9	0	0	---	0.00	30.106 
20:00	79.0	79.0	79.6	44	55.2	0	0	---	0.00	30.109 
20:05	78.6	78.6	79.3	44	54.8	0	0	---	0.00	30.109 
20:10	78.3	78.3	79.1	44	54.6	0	0	---	0.00	30.109 
20:15	77.9	77.9	78.9	45	54.8	0	0	---	0.00	30.103 
20:20	77.4	77.4	78.7	46	55.0	0	0	---	0.00	30.103 
20:25	76.8	76.8	78.4	46	54.4	0	0	---	0.00	30.103 
20:30	76.3	76.3	78.2	48	55.1	0	0	---	0.00	30.103 
20:35	75.8	75.8	78.0	48	54.7	0	0	---	0.00	30.103 
20:40	75.3	75.3	77.7	48	54.2	0	0	---	0.00	30.103 
20:45	74.6	74.6	74.6	51	55.3	0	0	---	0.00	30.104 
20:50	73.9	73.9	73.9	52	55.1	0	0	---	0.00	30.104 
20:55	73.3	73.3	73.3	53	55.1	0	0	---	0.00	30.104 
21:00	72.8	72.8	72.8	54	55.2	0	0	---	0.00	30.106 
21:05	72.3	72.3	72.3	55	55.2	0	0	---	0.00	30.106 
21:10	71.8	71.8	71.8	56	55.2	0	0	---	0.00	30.106 
21:15	71.3	71.3	71.3	57	55.3	0	0	---	0.00	30.104 
21:20	70.9	70.9	70.9	58	55.4	0	0	---	0.00	30.104 
21:25	70.6	70.6	70.6	60	56.0	0	0	---	0.00	30.104 
21:30	70.1	70.1	70.1	64	57.3	0	0	---	0.00	30.104 
21:35	69.8	69.8	69.8	64	57.1	0	0	---	0.00	30.104 
21:40	69.4	69.4	69.4	65	57.1	0	0	---	0.00	30.104 
21:45	69.1	69.1	69.1	67	57.7	0	2	90	0.00	30.112 
21:50	69.3	69.3	69.3	63	56.2	1	4	90	0.00	30.112 
21:55	69.9	69.9	69.9	62	56.3	1	4	90	0.00	30.112 
22:00	70.4	70.4	70.4	62	56.7	1	3	90	0.00	30.118 
22:05	70.6	70.6	70.6	63	57.4	1	2	90	0.00	30.118 
22:10	70.8	70.8	70.8	64	58.0	1	3	90	0.00	30.118 
22:15	70.9	70.9	70.9	65	58.5	2	4	90	0.00	30.115 
22:20	70.9	70.9	70.9	65	58.5	1	3	68	0.00	30.115 
22:25	70.9	70.9	70.9	66	59.0	1	3	90	0.00	30.115 
22:30	70.8	70.8	70.8	67	59.3	1	4	90	0.00	30.119 
22:35	70.6	70.6	70.6	67	59.1	1	3	68	0.00	30.119 
22:40	70.4	70.4	70.4	68	59.3	1	4	68	0.00	30.119 
22:45	70.3	70.3	70.3	69	59.6	1	2	90	0.00	30.120 
22:50	70.1	70.1	70.1	69	59.4	2	3	90	0.00	30.120 
22:55	69.9	69.9	69.9	69	59.3	1	3	90	0.00	30.120 
23:00	69.8	69.8	69.8	69	59.2	1	3	90	0.00	30.124 
23:05	69.6	69.6	69.6	69	59.0	1	3	90	0.00	30.124 
23:10	69.6	69.6	69.6	70	59.4	2	3	90	0.00	30.124 
23:15	69.4	69.4	69.4	70	59.2	1	3	90	0.00	30.123 
23:20	69.3	69.3	69.3	70	59.1	1	2	90	0.00	30.123 
23:25	69.1	69.1	69.1	70	58.9	1	3	90	0.00	30.123 
23:30	69.1	69.1	69.1	70	58.9	0	4	90	0.00	30.122 
23:35	68.8	68.8	68.8	70	58.6	1	3	90	0.00	30.122 
23:40	68.6	68.6	68.6	70	58.4	1	3	68	0.00	30.122 
23:45	68.6	68.6	68.6	71	58.8	1	2	68	0.00	30.118 
23:50	68.4	68.4	68.4	71	58.6	1	2	68	0.00	30.118 
23:55	68.3	68.3	68.3	71	58.5	0	2	68	0.00	30.118 

CoCoRaHS
IN-AL-39
A2 Web Hosting
Creative Commons License
GoDaddy
Look for:

loaded 2017-10-19 14:20:23 • last modified 2010-11-18 10:43:29
Privacy PolicyDisclaimer
• wx.awcolley.com is powered by PmWiki v.2002016 •
• all content (unless otherwise noted) © 2017 A W Colley